sensor_id;sensor_type;location;lat;lon;timestamp;temperature;humidity
21992;DHT22;11160;51.576;0.194;2022-08-19T00:02:08;24.50;74.50
21992;DHT22;11160;51.576;0.194;2022-08-19T00:04:36;24.50;74.50
21992;DHT22;11160;51.576;0.194;2022-08-19T00:07:05;24.50;74.50
21992;DHT22;11160;51.576;0.194;2022-08-19T00:09:33;24.50;74.70
21992;DHT22;11160;51.576;0.194;2022-08-19T00:12:01;24.50;74.70
21992;DHT22;11160;51.576;0.194;2022-08-19T00:14:28;24.50;74.80
21992;DHT22;11160;51.576;0.194;2022-08-19T00:16:58;24.40;75.10
21992;DHT22;11160;51.576;0.194;2022-08-19T00:19:27;24.40;76.00
21992;DHT22;11160;51.576;0.194;2022-08-19T00:21:54;24.40;75.10
21992;DHT22;11160;51.576;0.194;2022-08-19T00:24:24;24.40;75.20
21992;DHT22;11160;51.576;0.194;2022-08-19T00:26:52;24.40;75.20
21992;DHT22;11160;51.576;0.194;2022-08-19T00:29:20;24.40;75.00
21992;DHT22;11160;51.576;0.194;2022-08-19T00:31:48;24.40;75.20
21992;DHT22;11160;51.576;0.194;2022-08-19T00:34:17;24.40;75.00
21992;DHT22;11160;51.576;0.194;2022-08-19T00:36:45;24.40;75.10
21992;DHT22;11160;51.576;0.194;2022-08-19T00:39:17;24.40;75.30
21992;DHT22;11160;51.576;0.194;2022-08-19T00:41:46;24.40;75.40
21992;DHT22;11160;51.576;0.194;2022-08-19T00:44:21;24.40;75.40
21992;DHT22;11160;51.576;0.194;2022-08-19T00:46:55;24.40;76.00
21992;DHT22;11160;51.576;0.194;2022-08-19T00:49:40;24.40;75.60
21992;DHT22;11160;51.576;0.194;2022-08-19T00:52:11;24.40;75.90
21992;DHT22;11160;51.576;0.194;2022-08-19T00:54:39;24.30;75.60
21992;DHT22;11160;51.576;0.194;2022-08-19T00:57:10;24.30;75.50
21992;DHT22;11160;51.576;0.194;2022-08-19T00:59:44;24.30;75.90
21992;DHT22;11160;51.576;0.194;2022-08-19T01:02:29;24.30;75.70
21992;DHT22;11160;51.576;0.194;2022-08-19T01:04:57;24.30;75.70
21992;DHT22;11160;51.576;0.194;2022-08-19T01:07:25;24.30;75.80
21992;DHT22;11160;51.576;0.194;2022-08-19T01:09:53;24.30;75.80
21992;DHT22;11160;51.576;0.194;2022-08-19T01:12:20;24.30;76.00
21992;DHT22;11160;51.576;0.194;2022-08-19T01:14:49;24.30;76.00
21992;DHT22;11160;51.576;0.194;2022-08-19T01:17:17;24.30;76.30
21992;DHT22;11160;51.576;0.194;2022-08-19T01:19:47;24.30;76.70
21992;DHT22;11160;51.576;0.194;2022-08-19T01:22:25;24.30;76.40
21992;DHT22;11160;51.576;0.194;2022-08-19T01:24:59;24.30;76.80
21992;DHT22;11160;51.576;0.194;2022-08-19T01:27:27;24.30;76.40
21992;DHT22;11160;51.576;0.194;2022-08-19T01:30:12;24.20;76.30
21992;DHT22;11160;51.576;0.194;2022-08-19T01:32:39;24.20;76.50
21992;DHT22;11160;51.576;0.194;2022-08-19T01:35:07;24.20;76.60
21992;DHT22;11160;51.576;0.194;2022-08-19T01:37:56;24.20;76.60
21992;DHT22;11160;51.576;0.194;2022-08-19T01:40:28;24.20;77.60
21992;DHT22;11160;51.576;0.194;2022-08-19T01:42:56;24.20;76.90
21992;DHT22;11160;51.576;0.194;2022-08-19T01:45:25;24.20;76.90
21992;DHT22;11160;51.576;0.194;2022-08-19T01:47:54;24.20;77.10
21992;DHT22;11160;51.576;0.194;2022-08-19T01:50:30;24.20;77.00
21992;DHT22;11160;51.576;0.194;2022-08-19T01:52:58;24.20;77.00
21992;DHT22;11160;51.576;0.194;2022-08-19T01:55:35;24.20;77.00
21992;DHT22;11160;51.576;0.194;2022-08-19T01:58:18;24.10;77.00
21992;DHT22;11160;51.576;0.194;2022-08-19T02:00:47;24.10;77.50
21992;DHT22;11160;51.576;0.194;2022-08-19T02:03:15;24.10;77.20
21992;DHT22;11160;51.576;0.194;2022-08-19T02:05:43;24.10;77.70
21992;DHT22;11160;51.576;0.194;2022-08-19T02:08:12;24.10;77.30
21992;DHT22;11160;51.576;0.194;2022-08-19T02:10:43;24.10;77.60
21992;DHT22;11160;51.576;0.194;2022-08-19T02:13:12;24.10;78.00
21992;DHT22;11160;51.576;0.194;2022-08-19T02:15:40;24.10;77.50
21992;DHT22;11160;51.576;0.194;2022-08-19T02:18:07;24.10;77.60
21992;DHT22;11160;51.576;0.194;2022-08-19T02:20:36;24.10;77.60
21992;DHT22;11160;51.576;0.194;2022-08-19T02:23:04;24.10;77.80
21992;DHT22;11160;51.576;0.194;2022-08-19T02:25:39;24.10;77.80
21992;DHT22;11160;51.576;0.194;2022-08-19T02:28:07;24.10;78.00
21992;DHT22;11160;51.576;0.194;2022-08-19T02:30:34;24.10;77.90
21992;DHT22;11160;51.576;0.194;2022-08-19T02:33:01;24.10;78.00
21992;DHT22;11160;51.576;0.194;2022-08-19T02:35:28;24.10;78.10
21992;DHT22;11160;51.576;0.194;2022-08-19T02:37:56;24.00;78.10
21992;DHT22;11160;51.576;0.194;2022-08-19T02:40:51;24.10;78.20
21992;DHT22;11160;51.576;0.194;2022-08-19T02:43:21;24.00;79.00
21992;DHT22;11160;51.576;0.194;2022-08-19T02:45:50;24.00;78.20
21992;DHT22;11160;51.576;0.194;2022-08-19T02:48:23;24.00;78.30
21992;DHT22;11160;51.576;0.194;2022-08-19T02:50:52;24.00;78.80
21992;DHT22;11160;51.576;0.194;2022-08-19T02:53:26;24.00;78.60
21992;DHT22;11160;51.576;0.194;2022-08-19T02:55:54;24.00;79.10
21992;DHT22;11160;51.576;0.194;2022-08-19T02:58:23;24.00;78.60
21992;DHT22;11160;51.576;0.194;2022-08-19T03:00:54;24.00;78.80
21992;DHT22;11160;51.576;0.194;2022-08-19T03:03:22;24.00;79.10
21992;DHT22;11160;51.576;0.194;2022-08-19T03:05:50;24.00;78.60
21992;DHT22;11160;51.576;0.194;2022-08-19T03:08:24;24.00;78.70
21992;DHT22;11160;51.576;0.194;2022-08-19T03:10:52;24.00;79.00
21992;DHT22;11160;51.576;0.194;2022-08-19T03:13:20;24.00;78.80
21992;DHT22;11160;51.576;0.194;2022-08-19T03:15:47;23.90;79.00
21992;DHT22;11160;51.576;0.194;2022-08-19T03:18:15;23.90;79.20
21992;DHT22;11160;51.576;0.194;2022-08-19T03:20:51;23.90;79.10
21992;DHT22;11160;51.576;0.194;2022-08-19T03:23:22;23.90;79.90
21992;DHT22;11160;51.576;0.194;2022-08-19T03:25:51;23.90;79.20
21992;DHT22;11160;51.576;0.194;2022-08-19T03:28:41;23.90;79.50
21992;DHT22;11160;51.576;0.194;2022-08-19T03:31:17;23.90;79.60
21992;DHT22;11160;51.576;0.194;2022-08-19T03:34:04;23.90;79.50
21992;DHT22;11160;51.576;0.194;2022-08-19T03:36:33;23.90;79.50
21992;DHT22;11160;51.576;0.194;2022-08-19T03:39:01;23.90;79.50
21992;DHT22;11160;51.576;0.194;2022-08-19T03:41:31;23.90;79.60
21992;DHT22;11160;51.576;0.194;2022-08-19T03:44:10;23.90;79.80
21992;DHT22;11160;51.576;0.194;2022-08-19T03:46:44;23.90;79.80
21992;DHT22;11160;51.576;0.194;2022-08-19T03:49:11;23.90;80.60
21992;DHT22;11160;51.576;0.194;2022-08-19T03:51:41;23.90;79.80
21992;DHT22;11160;51.576;0.194;2022-08-19T03:54:10;23.90;79.90
21992;DHT22;11160;51.576;0.194;2022-08-19T03:56:39;23.90;80.20
21992;DHT22;11160;51.576;0.194;2022-08-19T03:59:10;23.90;80.10
21992;DHT22;11160;51.576;0.194;2022-08-19T04:01:38;23.90;80.10
21992;DHT22;11160;51.576;0.194;2022-08-19T04:04:05;23.90;80.10
21992;DHT22;11160;51.576;0.194;2022-08-19T04:06:34;23.90;80.30
21992;DHT22;11160;51.576;0.194;2022-08-19T04:09:08;23.80;80.40
21992;DHT22;11160;51.576;0.194;2022-08-19T04:11:38;23.80;80.50
21992;DHT22;11160;51.576;0.194;2022-08-19T04:14:15;23.80;80.50
21992;DHT22;11160;51.576;0.194;2022-08-19T04:16:43;23.80;80.60
21992;DHT22;11160;51.576;0.194;2022-08-19T04:19:13;23.80;80.70
21992;DHT22;11160;51.576;0.194;2022-08-19T04:21:44;23.80;80.80
21992;DHT22;11160;51.576;0.194;2022-08-19T04:24:13;23.80;81.00
21992;DHT22;11160;51.576;0.194;2022-08-19T04:26:40;23.80;80.80
21992;DHT22;11160;51.576;0.194;2022-08-19T04:29:14;23.80;80.70
21992;DHT22;11160;51.576;0.194;2022-08-19T04:31:43;23.80;81.10
21992;DHT22;11160;51.576;0.194;2022-08-19T04:34:13;23.80;81.00
21992;DHT22;11160;51.576;0.194;2022-08-19T04:36:43;23.80;81.10
21992;DHT22;11160;51.576;0.194;2022-08-19T04:39:15;23.80;81.10
21992;DHT22;11160;51.576;0.194;2022-08-19T04:41:44;23.80;81.60
21992;DHT22;11160;51.576;0.194;2022-08-19T04:44:35;23.80;81.10
21992;DHT22;11160;51.576;0.194;2022-08-19T04:47:11;23.70;81.60
21992;DHT22;11160;51.576;0.194;2022-08-19T04:49:38;23.70;81.10
21992;DHT22;11160;51.576;0.194;2022-08-19T04:52:05;23.70;81.40
21992;DHT22;11160;51.576;0.194;2022-08-19T04:54:32;23.70;81.60
21992;DHT22;11160;51.576;0.194;2022-08-19T04:57:07;23.70;81.60
21992;DHT22;11160;51.576;0.194;2022-08-19T04:59:38;23.70;81.90
21992;DHT22;11160;51.576;0.194;2022-08-19T05:02:07;23.70;81.80
21992;DHT22;11160;51.576;0.194;2022-08-19T05:04:35;23.70;82.00
21992;DHT22;11160;51.576;0.194;2022-08-19T05:07:07;23.70;82.00
21992;DHT22;11160;51.576;0.194;2022-08-19T05:09:34;23.70;82.10
21992;DHT22;11160;51.576;0.194;2022-08-19T05:12:21;23.70;82.10
21992;DHT22;11160;51.576;0.194;2022-08-19T05:14:55;23.70;82.30
21992;DHT22;11160;51.576;0.194;2022-08-19T05:17:24;23.70;82.30
21992;DHT22;11160;51.576;0.194;2022-08-19T05:19:55;23.70;82.30
21992;DHT22;11160;51.576;0.194;2022-08-19T05:22:43;23.70;82.50
21992;DHT22;11160;51.576;0.194;2022-08-19T05:25:14;23.70;82.70
21992;DHT22;11160;51.576;0.194;2022-08-19T05:27:42;23.70;82.60
21992;DHT22;11160;51.576;0.194;2022-08-19T05:30:10;23.70;82.70
21992;DHT22;11160;51.576;0.194;2022-08-19T05:32:38;23.60;82.70
21992;DHT22;11160;51.576;0.194;2022-08-19T05:35:06;23.70;82.80
21992;DHT22;11160;51.576;0.194;2022-08-19T05:37:33;23.70;82.80
21992;DHT22;11160;51.576;0.194;2022-08-19T05:40:00;23.70;83.00
21992;DHT22;11160;51.576;0.194;2022-08-19T05:42:28;23.70;83.00
21992;DHT22;11160;51.576;0.194;2022-08-19T05:44:55;23.70;83.00
21992;DHT22;11160;51.576;0.194;2022-08-19T05:47:22;23.70;83.30
21992;DHT22;11160;51.576;0.194;2022-08-19T05:49:49;23.70;83.20
21992;DHT22;11160;51.576;0.194;2022-08-19T05:52:18;23.70;83.10
21992;DHT22;11160;51.576;0.194;2022-08-19T05:54:53;23.70;83.20
21992;DHT22;11160;51.576;0.194;2022-08-19T05:57:23;23.70;83.20
21992;DHT22;11160;51.576;0.194;2022-08-19T05:59:50;23.80;83.20
21992;DHT22;11160;51.576;0.194;2022-08-19T06:02:24;23.80;83.20
21992;DHT22;11160;51.576;0.194;2022-08-19T06:04:51;23.80;83.20
21992;DHT22;11160;51.576;0.194;2022-08-19T06:07:18;23.80;83.30
21992;DHT22;11160;51.576;0.194;2022-08-19T06:09:46;23.80;83.20
21992;DHT22;11160;51.576;0.194;2022-08-19T06:12:27;23.80;83.30
21992;DHT22;11160;51.576;0.194;2022-08-19T06:14:58;23.80;83.80
21992;DHT22;11160;51.576;0.194;2022-08-19T06:17:27;23.80;83.10
21992;DHT22;11160;51.576;0.194;2022-08-19T06:19:56;23.80;83.10
21992;DHT22;11160;51.576;0.194;2022-08-19T06:22:23;23.80;83.10
21992;DHT22;11160;51.576;0.194;2022-08-19T06:24:50;23.80;83.30
21992;DHT22;11160;51.576;0.194;2022-08-19T06:27:20;23.80;83.40
21992;DHT22;11160;51.576;0.194;2022-08-19T06:29:48;23.90;83.50
21992;DHT22;11160;51.576;0.194;2022-08-19T06:32:16;23.90;83.10
21992;DHT22;11160;51.576;0.194;2022-08-19T06:34:43;23.90;83.00
21992;DHT22;11160;51.576;0.194;2022-08-19T06:37:11;23.90;82.90
21992;DHT22;11160;51.576;0.194;2022-08-19T06:39:42;23.90;82.80
21992;DHT22;11160;51.576;0.194;2022-08-19T06:42:10;23.90;82.80
21992;DHT22;11160;51.576;0.194;2022-08-19T06:44:41;24.00;82.80
21992;DHT22;11160;51.576;0.194;2022-08-19T06:47:20;24.00;82.90
21992;DHT22;11160;51.576;0.194;2022-08-19T06:49:58;24.00;83.00
21992;DHT22;11160;51.576;0.194;2022-08-19T06:52:33;24.10;83.20
21992;DHT22;11160;51.576;0.194;2022-08-19T06:55:03;24.10;83.30
21992;DHT22;11160;51.576;0.194;2022-08-19T06:57:33;24.10;83.10
21992;DHT22;11160;51.576;0.194;2022-08-19T07:00:00;24.10;83.40
21992;DHT22;11160;51.576;0.194;2022-08-19T07:02:28;24.20;83.30
21992;DHT22;11160;51.576;0.194;2022-08-19T07:04:55;24.20;83.30
21992;DHT22;11160;51.576;0.194;2022-08-19T07:07:25;24.20;83.40
21992;DHT22;11160;51.576;0.194;2022-08-19T07:09:52;24.20;83.50
21992;DHT22;11160;51.576;0.194;2022-08-19T07:12:31;24.20;83.50
21992;DHT22;11160;51.576;0.194;2022-08-19T07:15:05;24.20;83.80
21992;DHT22;11160;51.576;0.194;2022-08-19T07:17:33;24.20;83.80
21992;DHT22;11160;51.576;0.194;2022-08-19T07:20:06;24.20;83.80
21992;DHT22;11160;51.576;0.194;2022-08-19T07:22:37;24.20;84.00
21992;DHT22;11160;51.576;0.194;2022-08-19T07:25:06;24.20;84.10
21992;DHT22;11160;51.576;0.194;2022-08-19T07:27:34;24.20;84.20
21992;DHT22;11160;51.576;0.194;2022-08-19T07:30:02;24.20;84.10
21992;DHT22;11160;51.576;0.194;2022-08-19T07:32:29;24.30;84.20
21992;DHT22;11160;51.576;0.194;2022-08-19T07:34:58;24.30;84.30
21992;DHT22;11160;51.576;0.194;2022-08-19T07:37:27;24.30;84.30
21992;DHT22;11160;51.576;0.194;2022-08-19T07:40:00;24.30;84.40
21992;DHT22;11160;51.576;0.194;2022-08-19T07:42:28;24.30;84.40
21992;DHT22;11160;51.576;0.194;2022-08-19T07:44:57;24.30;84.30
21992;DHT22;11160;51.576;0.194;2022-08-19T07:47:25;24.30;84.40
21992;DHT22;11160;51.576;0.194;2022-08-19T07:50:15;24.30;84.80
21992;DHT22;11160;51.576;0.194;2022-08-19T07:52:43;24.40;84.80
21992;DHT22;11160;51.576;0.194;2022-08-19T07:55:16;24.40;85.10
21992;DHT22;11160;51.576;0.194;2022-08-19T07:58:03;24.40;85.20
21992;DHT22;11160;51.576;0.194;2022-08-19T08:00:32;24.40;85.40
21992;DHT22;11160;51.576;0.194;2022-08-19T08:02:59;24.40;85.70
21992;DHT22;11160;51.576;0.194;2022-08-19T08:05:26;24.50;86.10
21992;DHT22;11160;51.576;0.194;2022-08-19T08:08:13;24.50;86.20
21992;DHT22;11160;51.576;0.194;2022-08-19T08:11:20;24.50;86.40
21992;DHT22;11160;51.576;0.194;2022-08-19T08:13:49;24.60;86.40
21992;DHT22;11160;51.576;0.194;2022-08-19T08:16:32;24.60;86.90
21992;DHT22;11160;51.576;0.194;2022-08-19T08:19:00;24.60;86.30
21992;DHT22;11160;51.576;0.194;2022-08-19T08:21:27;24.70;86.50
21992;DHT22;11160;51.576;0.194;2022-08-19T08:23:54;24.70;86.60
21992;DHT22;11160;51.576;0.194;2022-08-19T08:26:23;24.80;86.60
21992;DHT22;11160;51.576;0.194;2022-08-19T08:28:52;24.80;86.70
21992;DHT22;11160;51.576;0.194;2022-08-19T08:31:20;24.80;86.90
21992;DHT22;11160;51.576;0.194;2022-08-19T08:33:47;24.80;86.80
21992;DHT22;11160;51.576;0.194;2022-08-19T08:36:15;24.80;86.80
21992;DHT22;11160;51.576;0.194;2022-08-19T08:38:43;24.90;86.80
21992;DHT22;11160;51.576;0.194;2022-08-19T08:43:50;24.80;80.30
21992;DHT22;11160;51.576;0.194;2022-08-19T08:46:35;24.80;80.00
21992;DHT22;11160;51.576;0.194;2022-08-19T08:52:28;24.80;76.60
21992;DHT22;11160;51.576;0.194;2022-08-19T08:55:03;24.80;77.60
21992;DHT22;11160;51.576;0.194;2022-08-19T08:57:52;24.80;76.80
21992;DHT22;11160;51.576;0.194;2022-08-19T09:00:25;24.70;74.00
21992;DHT22;11160;51.576;0.194;2022-08-19T09:02:54;24.60;74.10
21992;DHT22;11160;51.576;0.194;2022-08-19T09:05:23;24.60;73.80
21992;DHT22;11160;51.576;0.194;2022-08-19T09:10:55;24.60;72.20
21992;DHT22;11160;51.576;0.194;2022-08-19T09:16:16;24.50;72.90
21992;DHT22;11160;51.576;0.194;2022-08-19T09:18:51;24.50;72.60
21992;DHT22;11160;51.576;0.194;2022-08-19T09:21:22;24.60;73.10
21992;DHT22;11160;51.576;0.194;2022-08-19T09:23:59;24.60;73.00
21992;DHT22;11160;51.576;0.194;2022-08-19T09:26:29;24.80;73.70
21992;DHT22;11160;51.576;0.194;2022-08-19T09:29:17;24.80;74.00
21992;DHT22;11160;51.576;0.194;2022-08-19T09:31:44;24.90;73.20
21992;DHT22;11160;51.576;0.194;2022-08-19T09:34:11;25.00;72.40
21992;DHT22;11160;51.576;0.194;2022-08-19T09:36:48;25.10;71.40
21992;DHT22;11160;51.576;0.194;2022-08-19T09:39:20;25.20;70.70
21992;DHT22;11160;51.576;0.194;2022-08-19T09:41:47;25.20;70.20
21992;DHT22;11160;51.576;0.194;2022-08-19T09:44:17;25.30;70.10
21992;DHT22;11160;51.576;0.194;2022-08-19T09:46:44;25.30;69.90
21992;DHT22;11160;51.576;0.194;2022-08-19T09:49:15;25.40;69.40
21992;DHT22;11160;51.576;0.194;2022-08-19T09:51:44;25.40;68.90
21992;DHT22;11160;51.576;0.194;2022-08-19T09:54:17;25.40;68.00
21992;DHT22;11160;51.576;0.194;2022-08-19T09:56:50;25.40;68.60
21992;DHT22;11160;51.576;0.194;2022-08-19T09:59:17;25.40;68.30
21992;DHT22;11160;51.576;0.194;2022-08-19T10:01:44;25.50;68.70
21992;DHT22;11160;51.576;0.194;2022-08-19T10:04:11;25.60;68.50
21992;DHT22;11160;51.576;0.194;2022-08-19T10:06:49;25.60;68.50
21992;DHT22;11160;51.576;0.194;2022-08-19T10:09:19;25.60;69.10
21992;DHT22;11160;51.576;0.194;2022-08-19T10:12:02;25.70;68.50
21992;DHT22;11160;51.576;0.194;2022-08-19T10:14:31;25.70;67.70
21992;DHT22;11160;51.576;0.194;2022-08-19T10:17:01;25.80;67.90
21992;DHT22;11160;51.576;0.194;2022-08-19T10:19:45;25.80;68.00
21992;DHT22;11160;51.576;0.194;2022-08-19T10:22:22;25.90;67.70
21992;DHT22;11160;51.576;0.194;2022-08-19T10:24:51;25.90;67.50
21992;DHT22;11160;51.576;0.194;2022-08-19T10:27:19;25.90;67.50
21992;DHT22;11160;51.576;0.194;2022-08-19T10:29:46;25.90;67.00
21992;DHT22;11160;51.576;0.194;2022-08-19T10:32:14;26.00;67.00
21992;DHT22;11160;51.576;0.194;2022-08-19T10:34:42;26.00;67.00
21992;DHT22;11160;51.576;0.194;2022-08-19T10:37:16;26.00;66.70
21992;DHT22;11160;51.576;0.194;2022-08-19T10:39:57;26.00;66.70
21992;DHT22;11160;51.576;0.194;2022-08-19T10:42:24;26.00;66.70
21992;DHT22;11160;51.576;0.194;2022-08-19T10:44:51;25.90;66.50
21992;DHT22;11160;51.576;0.194;2022-08-19T10:47:18;26.00;66.40
21992;DHT22;11160;51.576;0.194;2022-08-19T10:49:53;26.00;66.80
21992;DHT22;11160;51.576;0.194;2022-08-19T10:52:43;25.90;66.10
21992;DHT22;11160;51.576;0.194;2022-08-19T10:55:19;25.90;65.80
21992;DHT22;11160;51.576;0.194;2022-08-19T10:58:11;25.90;65.80
21992;DHT22;11160;51.576;0.194;2022-08-19T11:00:39;25.90;66.00
21992;DHT22;11160;51.576;0.194;2022-08-19T11:03:07;25.90;65.90
21992;DHT22;11160;51.576;0.194;2022-08-19T11:05:36;25.90;65.90
21992;DHT22;11160;51.576;0.194;2022-08-19T11:08:06;26.00;65.90
21992;DHT22;11160;51.576;0.194;2022-08-19T11:10:51;26.00;66.50
21992;DHT22;11160;51.576;0.194;2022-08-19T11:13:27;26.00;65.50
21992;DHT22;11160;51.576;0.194;2022-08-19T11:16:08;26.00;65.40
21992;DHT22;11160;51.576;0.194;2022-08-19T11:18:37;26.00;65.00
21992;DHT22;11160;51.576;0.194;2022-08-19T11:21:11;26.00;65.50
21992;DHT22;11160;51.576;0.194;2022-08-19T11:23:38;26.00;65.20
21992;DHT22;11160;51.576;0.194;2022-08-19T11:26:06;26.00;65.10
21992;DHT22;11160;51.576;0.194;2022-08-19T11:28:35;26.00;65.00
21992;DHT22;11160;51.576;0.194;2022-08-19T11:31:02;26.00;65.10
21992;DHT22;11160;51.576;0.194;2022-08-19T11:33:30;26.00;65.00
21992;DHT22;11160;51.576;0.194;2022-08-19T11:35:59;26.00;65.00
21992;DHT22;11160;51.576;0.194;2022-08-19T11:38:27;26.00;64.90
21992;DHT22;11160;51.576;0.194;2022-08-19T11:40:57;26.00;64.60
21992;DHT22;11160;51.576;0.194;2022-08-19T11:43:24;26.00;64.30
21992;DHT22;11160;51.576;0.194;2022-08-19T11:45:54;26.00;64.20
21992;DHT22;11160;51.576;0.194;2022-08-19T11:48:23;26.00;64.00
21992;DHT22;11160;51.576;0.194;2022-08-19T11:50:52;26.10;63.40
21992;DHT22;11160;51.576;0.194;2022-08-19T11:53:19;26.10;63.40
21992;DHT22;11160;51.576;0.194;2022-08-19T11:55:47;26.00;62.90
21992;DHT22;11160;51.576;0.194;2022-08-19T11:58:16;26.10;62.60
21992;DHT22;11160;51.576;0.194;2022-08-19T12:00:45;26.10;62.50
21992;DHT22;11160;51.576;0.194;2022-08-19T12:03:13;26.10;62.20
21992;DHT22;11160;51.576;0.194;2022-08-19T12:05:41;26.10;61.70
21992;DHT22;11160;51.576;0.194;2022-08-19T12:08:09;26.20;61.60
21992;DHT22;11160;51.576;0.194;2022-08-19T12:10:36;26.20;61.10
21992;DHT22;11160;51.576;0.194;2022-08-19T12:13:03;26.20;61.00
21992;DHT22;11160;51.576;0.194;2022-08-19T12:15:38;26.30;60.90
21992;DHT22;11160;51.576;0.194;2022-08-19T12:18:08;26.40;60.40
21992;DHT22;11160;51.576;0.194;2022-08-19T12:20:38;26.50;60.30
21992;DHT22;11160;51.576;0.194;2022-08-19T12:23:08;26.60;60.50
21992;DHT22;11160;51.576;0.194;2022-08-19T12:25:37;26.70;60.30
21992;DHT22;11160;51.576;0.194;2022-08-19T12:28:04;26.70;60.00
21992;DHT22;11160;51.576;0.194;2022-08-19T12:30:31;26.70;59.50
21992;DHT22;11160;51.576;0.194;2022-08-19T12:32:58;26.70;58.90
21992;DHT22;11160;51.576;0.194;2022-08-19T12:35:25;26.60;58.70
21992;DHT22;11160;51.576;0.194;2022-08-19T12:37:52;26.60;59.00
21992;DHT22;11160;51.576;0.194;2022-08-19T12:40:23;26.70;58.60
21992;DHT22;11160;51.576;0.194;2022-08-19T12:42:52;26.80;58.60
21992;DHT22;11160;51.576;0.194;2022-08-19T12:45:20;27.00;59.70
21992;DHT22;11160;51.576;0.194;2022-08-19T12:47:47;27.00;59.30
21992;DHT22;11160;51.576;0.194;2022-08-19T12:50:15;26.90;59.00
21992;DHT22;11160;51.576;0.194;2022-08-19T12:52:42;26.90;58.20
21992;DHT22;11160;51.576;0.194;2022-08-19T12:55:10;26.80;58.40
21992;DHT22;11160;51.576;0.194;2022-08-19T12:57:38;26.70;59.20
21992;DHT22;11160;51.576;0.194;2022-08-19T13:00:11;26.70;58.00
21992;DHT22;11160;51.576;0.194;2022-08-19T13:02:43;26.70;57.40
21992;DHT22;11160;51.576;0.194;2022-08-19T13:05:13;26.60;57.40
21992;DHT22;11160;51.576;0.194;2022-08-19T13:07:42;26.50;57.20
21992;DHT22;11160;51.576;0.194;2022-08-19T13:10:15;26.50;57.50
21992;DHT22;11160;51.576;0.194;2022-08-19T13:12:44;26.60;57.40
21992;DHT22;11160;51.576;0.194;2022-08-19T13:15:12;27.00;57.20
21992;DHT22;11160;51.576;0.194;2022-08-19T13:17:42;27.70;56.80
21992;DHT22;11160;51.576;0.194;2022-08-19T13:20:10;28.50;56.10
21992;DHT22;11160;51.576;0.194;2022-08-19T13:22:38;29.10;54.80
21992;DHT22;11160;51.576;0.194;2022-08-19T13:25:06;29.30;54.40
21992;DHT22;11160;51.576;0.194;2022-08-19T13:27:33;29.30;53.90
21992;DHT22;11160;51.576;0.194;2022-08-19T13:30:02;29.00;52.00
21992;DHT22;11160;51.576;0.194;2022-08-19T13:32:48;28.90;51.40
21992;DHT22;11160;51.576;0.194;2022-08-19T13:35:34;28.90;51.40
21992;DHT22;11160;51.576;0.194;2022-08-19T13:38:02;29.00;51.30
21992;DHT22;11160;51.576;0.194;2022-08-19T13:40:38;29.40;50.80
21992;DHT22;11160;51.576;0.194;2022-08-19T13:43:07;29.70;50.90
21992;DHT22;11160;51.576;0.194;2022-08-19T13:45:52;30.00;49.90
21992;DHT22;11160;51.576;0.194;2022-08-19T13:48:23;29.80;48.50
21992;DHT22;11160;51.576;0.194;2022-08-19T13:50:50;29.60;48.90
21992;DHT22;11160;51.576;0.194;2022-08-19T13:53:18;29.30;49.10
21992;DHT22;11160;51.576;0.194;2022-08-19T13:55:45;29.10;48.80
21992;DHT22;11160;51.576;0.194;2022-08-19T13:58:13;29.00;48.70
21992;DHT22;11160;51.576;0.194;2022-08-19T14:00:43;28.80;48.60
21992;DHT22;11160;51.576;0.194;2022-08-19T14:03:11;28.70;49.50
21992;DHT22;11160;51.576;0.194;2022-08-19T14:05:38;28.60;49.40
21992;DHT22;11160;51.576;0.194;2022-08-19T14:08:06;28.70;49.20
21992;DHT22;11160;51.576;0.194;2022-08-19T14:10:33;28.70;49.20
21992;DHT22;11160;51.576;0.194;2022-08-19T14:13:02;28.70;48.80
21992;DHT22;11160;51.576;0.194;2022-08-19T14:15:30;28.60;48.20
21992;DHT22;11160;51.576;0.194;2022-08-19T14:17:58;28.70;49.40
21992;DHT22;11160;51.576;0.194;2022-08-19T14:20:25;28.80;48.90
21992;DHT22;11160;51.576;0.194;2022-08-19T14:22:53;28.90;48.60
21992;DHT22;11160;51.576;0.194;2022-08-19T14:25:24;28.90;47.70
21992;DHT22;11160;51.576;0.194;2022-08-19T14:27:52;28.90;47.10
21992;DHT22;11160;51.576;0.194;2022-08-19T14:30:22;28.80;47.40
21992;DHT22;11160;51.576;0.194;2022-08-19T14:32:52;28.90;48.30
21992;DHT22;11160;51.576;0.194;2022-08-19T14:35:20;28.90;48.20
21992;DHT22;11160;51.576;0.194;2022-08-19T14:37:51;28.90;49.20
21992;DHT22;11160;51.576;0.194;2022-08-19T14:40:25;28.90;49.70
21992;DHT22;11160;51.576;0.194;2022-08-19T14:42:57;28.90;48.80
21992;DHT22;11160;51.576;0.194;2022-08-19T14:45:31;28.80;47.30
21992;DHT22;11160;51.576;0.194;2022-08-19T14:47:59;28.80;46.30
21992;DHT22;11160;51.576;0.194;2022-08-19T14:50:27;28.70;46.00
21992;DHT22;11160;51.576;0.194;2022-08-19T14:52:59;28.60;45.90
21992;DHT22;11160;51.576;0.194;2022-08-19T14:55:35;28.60;45.30
21992;DHT22;11160;51.576;0.194;2022-08-19T14:58:03;28.50;47.00
21992;DHT22;11160;51.576;0.194;2022-08-19T15:00:34;28.40;46.20
21992;DHT22;11160;51.576;0.194;2022-08-19T15:03:02;28.40;46.80
21992;DHT22;11160;51.576;0.194;2022-08-19T15:05:30;28.30;47.10
21992;DHT22;11160;51.576;0.194;2022-08-19T15:07:57;28.20;46.50
21992;DHT22;11160;51.576;0.194;2022-08-19T15:10:24;28.20;45.40
21992;DHT22;11160;51.576;0.194;2022-08-19T15:12:51;28.10;45.00
21992;DHT22;11160;51.576;0.194;2022-08-19T15:15:20;28.10;45.90
21992;DHT22;11160;51.576;0.194;2022-08-19T15:18:17;28.00;47.30
21992;DHT22;11160;51.576;0.194;2022-08-19T15:20:44;27.90;44.60
21992;DHT22;11160;51.576;0.194;2022-08-19T15:23:13;27.90;45.00
21992;DHT22;11160;51.576;0.194;2022-08-19T15:25:41;27.80;45.50
21992;DHT22;11160;51.576;0.194;2022-08-19T15:28:13;27.80;45.20
21992;DHT22;11160;51.576;0.194;2022-08-19T15:30:42;27.70;46.30
21992;DHT22;11160;51.576;0.194;2022-08-19T15:33:11;27.70;46.30
21992;DHT22;11160;51.576;0.194;2022-08-19T15:35:46;27.60;45.70
21992;DHT22;11160;51.576;0.194;2022-08-19T15:38:17;27.60;46.30
21992;DHT22;11160;51.576;0.194;2022-08-19T15:40:49;27.60;45.50
21992;DHT22;11160;51.576;0.194;2022-08-19T15:43:17;27.50;46.10
21992;DHT22;11160;51.576;0.194;2022-08-19T15:45:46;27.50;46.50
21992;DHT22;11160;51.576;0.194;2022-08-19T15:48:15;27.50;46.60
21992;DHT22;11160;51.576;0.194;2022-08-19T15:50:43;27.40;46.40
21992;DHT22;11160;51.576;0.194;2022-08-19T15:53:11;27.40;46.50
21992;DHT22;11160;51.576;0.194;2022-08-19T15:55:47;27.30;46.70
21992;DHT22;11160;51.576;0.194;2022-08-19T15:58:17;27.40;48.30
21992;DHT22;11160;51.576;0.194;2022-08-19T16:01:05;27.30;47.40
21992;DHT22;11160;51.576;0.194;2022-08-19T16:03:54;27.30;47.50
21992;DHT22;11160;51.576;0.194;2022-08-19T16:06:54;27.30;47.90